Time;durP1;ratioP1;P1;durP2;ratioP2;P2;SDS_P1;SDS_P2;PMS_P1;PMS_P2;Temp;Humidity;BMP_temperature;BMP_pressure;BME280_temperature;BME280_humidity;BME280_pressure;Samples;Min_cycle;Max_cycle;Signal;HPM_P1;HPM_P2
2021/04/06 00:00:18;;;;;;;11.75;2.42;;;3.80;66.90;;;;;;5016260;28;20088;-74
2021/04/06 00:02:47;;;;;;;13.10;2.50;;;3.80;67.50;;;;;;5027729;28;20167;-72
2021/04/06 00:05:15;;;;;;;8.35;2.00;;;3.60;67.20;;;;;;5030018;28;20044;-72
2021/04/06 00:07:42;;;;;;;13.57;2.30;;;3.50;66.40;;;;;;5028042;28;20041;-73
2021/04/06 00:10:13;;;;;;;13.73;2.53;;;3.40;66.10;;;;;;5027402;28;20033;-71
2021/04/06 00:12:40;;;;;;;8.55;1.92;;;3.40;65.20;;;;;;5024684;28;20030;-71
2021/04/06 00:15:09;;;;;;;9.85;2.05;;;3.30;65.30;;;;;;5023129;28;20076;-71
2021/04/06 00:17:38;;;;;;;7.25;2.22;;;3.20;65.40;;;;;;5023364;28;20030;-72
2021/04/06 00:20:06;;;;;;;12.27;2.03;;;3.20;65.20;;;;;;5027351;28;20476;-72
2021/04/06 00:22:34;;;;;;;11.68;2.40;;;3.20;65.20;;;;;;5023905;28;20036;-71
2021/04/06 00:25:01;;;;;;;8.32;1.80;;;3.20;65.30;;;;;;5027697;28;20060;-72
2021/04/06 00:27:33;;;;;;;9.73;2.08;;;3.10;65.10;;;;;;5009840;28;20036;-72
2021/04/06 00:30:10;;;;;;;8.68;2.17;;;3.10;65.20;;;;;;5026990;28;20456;-73
2021/04/06 00:32:37;;;;;;;13.32;2.97;;;3.20;64.90;;;;;;5023569;28;20029;-72
2021/04/06 00:35:06;;;;;;;8.57;1.92;;;3.30;64.80;;;;;;5023999;28;20512;-72
2021/04/06 00:37:35;;;;;;;11.32;2.15;;;3.30;64.50;;;;;;5022321;28;20033;-74
2021/04/06 00:40:08;;;;;;;12.82;2.50;;;3.30;64.00;;;;;;5019525;28;20134;-72
2021/04/06 00:42:34;;;;;;;15.40;2.30;;;3.30;64.00;;;;;;5019902;28;20190;-72
2021/04/06 00:45:18;;;;;;;10.35;2.60;;;3.30;64.10;;;;;;5027374;28;20116;-72
2021/04/06 00:47:44;;;;;;;12.30;2.80;;;3.30;63.90;;;;;;5020176;28;20048;-72
2021/04/06 00:50:12;;;;;;;13.15;2.70;;;3.40;63.70;;;;;;5017163;28;20430;-73
2021/04/06 00:52:45;;;;;;;12.68;2.58;;;3.40;63.50;;;;;;5026568;28;20025;-72
2021/04/06 00:55:18;;;;;;;15.43;3.05;;;3.40;63.50;;;;;;5036344;28;20124;-72
2021/04/06 00:57:44;;;;;;;20.75;3.05;;;3.50;63.60;;;;;;5038033;28;20541;-73
2021/04/06 01:00:10;;;;;;;13.73;3.15;;;3.50;63.60;;;;;;5030531;28;20041;-76
2021/04/06 01:02:36;;;;;;;9.57;2.70;;;3.60;63.30;;;;;;5024252;28;20030;-71
2021/04/06 01:05:06;;;;;;;13.10;2.67;;;3.60;63.20;;;;;;5034910;28;20096;-73
2021/04/06 01:07:37;;;;;;;11.88;2.30;;;3.70;62.80;;;;;;5028914;28;20056;-71
2021/04/06 01:10:07;;;;;;;15.20;2.72;;;3.80;62.70;;;;;;5035691;28;20081;-71
2021/04/06 01:12:33;;;;;;;11.30;2.20;;;3.80;62.70;;;;;;5039764;28;20441;-72
2021/04/06 01:15:00;;;;;;;12.93;2.90;;;3.80;62.60;;;;;;5040949;28;20517;-75
2021/04/06 01:17:34;;;;;;;11.45;2.03;;;3.80;62.60;;;;;;5026335;28;20041;-72
2021/04/06 01:20:06;;;;;;;;;;;3.70;63.00;;;;;;5030244;28;20127;-72
2021/04/06 01:22:32;;;;;;;13.38;2.90;;;3.70;63.30;;;;;;5039795;28;20367;-72
2021/04/06 01:24:58;;;;;;;11.88;2.38;;;3.60;63.30;;;;;;5025886;28;20068;-72
2021/04/06 01:27:24;;;;;;;13.23;2.53;;;3.60;63.20;;;;;;5031619;28;20056;-71
2021/04/06 01:29:54;;;;;;;11.80;2.45;;;3.60;63.50;;;;;;5030848;28;20029;-72
2021/04/06 01:32:22;;;;;;;13.13;2.55;;;3.60;63.70;;;;;;5033672;28;20040;-72
2021/04/06 01:34:49;;;;;;;8.20;2.65;;;3.60;63.60;;;;;;5028742;28;20092;-71
2021/04/06 01:37:19;;;;;;;9.25;1.90;;;3.60;63.70;;;;;;5031194;28;20052;-73
2021/04/06 01:39:46;;;;;;;13.18;3.05;;;3.60;63.50;;;;;;5038852;28;20515;-73
2021/04/06 01:42:13;;;;;;;12.05;3.17;;;3.60;63.50;;;;;;5029262;28;20029;-72
2021/04/06 01:44:41;;;;;;;10.32;2.55;;;3.60;63.40;;;;;;5026469;28;20468;-72
2021/04/06 01:47:08;;;;;;;12.38;2.22;;;3.50;63.70;;;;;;5034401;28;20029;-70
2021/04/06 01:49:33;;;;;;;14.95;3.05;;;3.50;63.80;;;;;;5033797;28;20464;-71
2021/04/06 01:52:01;;;;;;;12.70;2.30;;;3.50;63.80;;;;;;5033963;28;20037;-71
2021/04/06 01:54:26;;;;;;;11.40;3.03;;;3.40;63.90;;;;;;5023447;28;20076;-74
2021/04/06 01:56:53;;;;;;;14.02;2.92;;;3.50;64.00;;;;;;5025033;28;20057;-71
2021/04/06 01:59:27;;;;;;;12.32;2.75;;;3.40;64.30;;;;;;5020529;28;20128;-71
2021/04/06 02:01:55;;;;;;;12.68;2.63;;;3.40;64.70;;;;;;5026709;28;20561;-70
2021/04/06 02:04:23;;;;;;;18.80;3.22;;;3.40;65.30;;;;;;5033915;28;20041;-70
2021/04/06 02:06:51;;;;;;;14.13;2.83;;;3.40;65.30;;;;;;5025750;28;20049;-70
2021/04/06 02:09:19;;;;;;;12.68;2.47;;;3.40;65.50;;;;;;5024487;28;20045;-70
2021/04/06 02:11:46;;;;;;;11.00;2.15;;;3.40;65.30;;;;;;5036673;28;20539;-71
2021/04/06 02:14:20;;;;;;;10.40;2.20;;;3.40;65.30;;;;;;5027805;28;20056;-73
2021/04/06 02:16:49;;;;;;;16.37;2.50;;;3.40;65.20;;;;;;5029673;28;20442;-72
2021/04/06 02:19:33;;;;;;;15.23;2.60;;;3.40;65.20;;;;;;5028645;28;20033;-70
2021/04/06 02:22:01;;;;;;;19.75;2.83;;;3.40;65.00;;;;;;5028958;28;20075;-72
2021/04/06 02:24:44;;;;;;;13.05;2.60;;;3.40;64.70;;;;;;5021006;28;20068;-70
2021/04/06 02:27:16;;;;;;;12.85;2.65;;;3.40;64.50;;;;;;5012894;28;20037;-73
2021/04/06 02:29:48;;;;;;;12.32;2.13;;;3.40;64.70;;;;;;5035617;28;20040;-71
2021/04/06 02:32:16;;;;;;;11.45;2.50;;;3.30;64.80;;;;;;5024551;28;20048;-76
2021/04/06 02:34:44;;;;;;;6.75;2.10;;;3.30;64.30;;;;;;5028089;28;20052;-74
2021/04/06 02:37:15;;;;;;;15.35;2.33;;;3.30;64.30;;;;;;5029957;28;20025;-72
2021/04/06 02:39:41;;;;;;;11.77;2.45;;;3.20;64.30;;;;;;5031038;28;20057;-71
2021/04/06 02:42:32;;;;;;;9.63;2.13;;;3.30;64.20;;;;;;5034725;28;20057;-71
2021/04/06 02:45:07;;;;;;;11.98;2.13;;;3.20;64.40;;;;;;5026535;28;20495;-74
2021/04/06 02:47:36;;;;;;;8.57;1.92;;;3.20;64.40;;;;;;5029760;28;20144;-71
2021/04/06 02:50:05;;;;;;;10.35;2.05;;;3.20;64.30;;;;;;5033259;28;20030;-72
2021/04/06 02:52:30;;;;;;;13.98;2.15;;;3.20;64.50;;;;;;5031725;28;20025;-70
2021/04/06 02:54:56;;;;;;;8.73;2.40;;;3.10;64.40;;;;;;5037704;28;20104;-71
2021/04/06 02:57:24;;;;;;;12.43;2.63;;;3.10;64.70;;;;;;5029038;28;20354;-71
2021/04/06 02:59:51;;;;;;;8.27;2.28;;;3.10;64.70;;;;;;5028642;28;20505;-71
2021/04/06 03:02:17;;;;;;;8.52;2.50;;;3.10;64.70;;;;;;5033645;28;20033;-76
2021/04/06 03:04:43;;;;;;;9.90;2.45;;;3.10;64.90;;;;;;5030189;28;20040;-72
2021/04/06 03:07:46;;;;;;;13.40;2.65;;;3.00;65.30;;;;;;5026132;28;20056;-72
2021/04/06 03:10:19;;;;;;;8.70;2.00;;;3.00;65.40;;;;;;5033515;28;20156;-73
2021/04/06 03:12:47;;;;;;;9.93;2.33;;;3.00;65.50;;;;;;5054621;28;20029;-74
2021/04/06 03:15:13;;;;;;;9.90;2.15;;;3.00;65.50;;;;;;5010370;28;20037;-71
2021/04/06 03:17:48;;;;;;;10.35;2.33;;;2.90;65.70;;;;;;5007320;28;20038;-71
2021/04/06 03:20:14;;;;;;;12.73;2.15;;;2.90;65.30;;;;;;5006754;28;20473;-70
2021/04/06 03:22:40;;;;;;;10.52;2.00;;;3.00;65.10;;;;;;5012345;28;20080;-74
2021/04/06 03:25:06;;;;;;;10.27;2.40;;;2.90;65.00;;;;;;5020586;28;20045;-72
2021/04/06 03:27:33;;;;;;;10.43;2.17;;;3.00;64.60;;;;;;5035124;28;20502;-71
2021/04/06 03:30:01;;;;;;;9.65;2.25;;;3.00;64.30;;;;;;5026784;28;20564;-71
2021/04/06 03:32:26;;;;;;;7.63;2.40;;;2.90;64.40;;;;;;5031401;28;20029;-71
2021/04/06 03:34:53;;;;;;;11.20;2.03;;;2.90;64.60;;;;;;5027031;28;20057;-71
2021/04/06 03:37:23;;;;;;;10.32;2.60;;;2.90;64.80;;;;;;5033921;28;20125;-73
2021/04/06 03:39:48;;;;;;;7.50;1.65;;;2.90;64.60;;;;;;5036297;28;20072;-71
2021/04/06 03:42:27;;;;;;;12.02;2.75;;;2.90;65.00;;;;;;5033740;28;20053;-71
2021/04/06 03:45:11;;;;;;;10.48;2.20;;;2.90;65.00;;;;;;5023537;28;20491;-72
2021/04/06 03:47:57;;;;;;;12.00;2.75;;;2.90;64.90;;;;;;5031013;28;20103;-71
2021/04/06 03:50:41;;;;;;;13.35;2.20;;;3.00;64.90;;;;;;5032393;28;20026;-72
2021/04/06 03:53:09;;;;;;;9.00;2.35;;;3.00;65.30;;;;;;5023785;28;20376;-72
2021/04/06 03:55:37;;;;;;;6.78;1.92;;;2.90;65.50;;;;;;5034561;28;20033;-72
2021/04/06 04:00:39;;;;;;;11.85;2.75;;;2.90;65.80;;;;;;5033948;28;20041;-71
2021/04/06 04:03:05;;;;;;;14.25;3.08;;;2.80;66.10;;;;;;5030935;28;20042;-72
2021/04/06 04:05:31;;;;;;;13.02;2.47;;;2.80;66.40;;;;;;5035995;28;20040;-71
2021/04/06 04:07:57;;;;;;;12.73;1.98;;;2.80;68.30;;;;;;5034692;28;20033;-74
2021/04/06 04:10:23;;;;;;;13.20;2.88;;;2.80;69.00;;;;;;5025724;28;20051;-71
2021/04/06 04:12:48;;;;;;;16.90;2.75;;;2.80;70.30;;;;;;5032724;28;20468;-71
2021/04/06 04:15:15;;;;;;;12.88;2.40;;;2.70;71.00;;;;;;5030308;28;20049;-71
2021/04/06 04:17:40;;;;;;;14.88;2.70;;;2.70;71.50;;;;;;5028595;28;20026;-71
2021/04/06 04:20:16;;;;;;;10.98;2.75;;;2.60;72.50;;;;;;5032753;28;20030;-71
2021/04/06 04:22:42;;;;;;;12.30;2.83;;;2.60;72.40;;;;;;5031661;28;20150;-72
2021/04/06 04:25:09;;;;;;;13.40;2.70;;;2.60;72.50;;;;;;5035675;28;20563;-71
2021/04/06 04:27:36;;;;;;;13.32;2.78;;;2.50;72.80;;;;;;5030174;28;20109;-71
2021/04/06 04:30:02;;;;;;;11.25;2.20;;;2.50;73.00;;;;;;5028795;28;20053;-72
2021/04/06 04:32:28;;;;;;;9.75;2.33;;;2.50;73.10;;;;;;5027372;28;20100;-72
2021/04/06 04:34:53;;;;;;;8.35;2.50;;;2.40;73.20;;;;;;5029958;28;20049;-71
2021/04/06 04:37:19;;;;;;;10.93;2.13;;;2.40;73.20;;;;;;5030511;28;20025;-77
2021/04/06 04:39:45;;;;;;;11.98;2.65;;;2.40;73.40;;;;;;5023978;28;20029;-72
2021/04/06 04:42:10;;;;;;;12.63;2.42;;;2.30;73.70;;;;;;5041796;28;20527;-72
2021/04/06 04:44:36;;;;;;;17.65;3.40;;;2.20;74.10;;;;;;5015223;28;20095;-71
2021/04/06 04:47:02;;;;;;;8.57;2.33;;;2.20;74.50;;;;;;5005426;28;20496;-71
2021/04/06 04:49:28;;;;;;;12.57;2.95;;;2.10;74.80;;;;;;5021556;28;20144;-73
2021/04/06 04:51:54;;;;;;;13.80;3.45;;;2.10;74.80;;;;;;5035850;28;20115;-70
2021/04/06 04:54:19;;;;;;;10.80;2.75;;;2.10;73.90;;;;;;5028595;28;20120;-70
2021/04/06 04:56:45;;;;;;;11.73;2.33;;;2.00;73.30;;;;;;5043333;28;20040;-70
2021/04/06 04:59:10;;;;;;;12.00;2.63;;;2.10;72.20;;;;;;5031273;28;20220;-75
2021/04/06 05:01:36;;;;;;;12.25;2.60;;;2.10;71.20;;;;;;5045636;28;20061;-72
2021/04/06 05:04:02;;;;;;;10.48;3.35;;;2.10;70.60;;;;;;5017348;28;20091;-71
2021/04/06 05:06:28;;;;;;;13.57;2.40;;;2.10;69.80;;;;;;5032101;28;20096;-70
2021/04/06 05:08:54;;;;;;;12.25;2.70;;;2.10;69.40;;;;;;5033854;28;20128;-70
2021/04/06 05:11:19;;;;;;;11.75;2.42;;;2.20;69.10;;;;;;5031709;28;20048;-72
2021/04/06 05:13:46;;;;;;;10.68;2.97;;;2.30;69.20;;;;;;5043433;28;20073;-70
2021/04/06 05:16:12;;;;;;;9.82;2.28;;;2.20;69.20;;;;;;5032577;28;20477;-70
2021/04/06 05:18:38;;;;;;;11.00;2.83;;;2.30;69.00;;;;;;5028778;28;20041;-71
2021/04/06 05:21:04;;;;;;;12.48;2.60;;;2.40;69.10;;;;;;5038348;28;20090;-71
2021/04/06 05:23:29;;;;;;;11.25;2.42;;;2.40;69.40;;;;;;5030837;28;20036;-70
2021/04/06 05:25:55;;;;;;;9.05;2.40;;;2.40;69.50;;;;;;5030665;28;20044;-71
2021/04/06 05:28:21;;;;;;;11.98;3.10;;;2.40;69.80;;;;;;5048348;28;22582;-71
2021/04/06 05:30:47;;;;;;;12.25;3.30;;;2.40;70.00;;;;;;5025345;28;20021;-70
2021/04/06 05:33:13;;;;;;;12.43;3.10;;;2.50;70.00;;;;;;5030486;28;20503;-72
2021/04/06 05:35:38;;;;;;;11.35;2.85;;;2.50;70.00;;;;;;5027607;28;20045;-70
2021/04/06 05:38:04;;;;;;;8.77;2.53;;;2.50;70.20;;;;;;5026018;28;20026;-70
2021/04/06 05:40:30;;;;;;;9.63;2.70;;;2.50;70.10;;;;;;5027506;28;20080;-72
2021/04/06 05:42:58;;;;;;;10.20;2.60;;;2.50;70.10;;;;;;5034432;28;20083;-70
2021/04/06 05:45:24;;;;;;;9.98;2.55;;;2.60;69.80;;;;;;5027441;28;20511;-73
2021/04/06 05:47:55;;;;;;;14.50;3.97;;;2.60;69.80;;;;;;5030401;28;20025;-71
2021/04/06 05:50:21;;;;;;;11.23;2.95;;;2.60;69.40;;;;;;5034230;28;20069;-71
2021/04/06 05:52:47;;;;;;;17.10;3.25;;;2.60;69.50;;;;;;5030174;28;20089;-71
2021/04/06 05:55:13;;;;;;;13.52;2.80;;;2.60;70.10;;;;;;5026432;28;20149;-71
2021/04/06 05:57:39;;;;;;;8.45;3.00;;;2.60;72.20;;;;;;5035193;28;20442;-76
2021/04/06 06:00:07;;;;;;;21.05;3.50;;;2.60;75.70;;;;;;5031596;28;20037;-71
2021/04/06 06:02:32;;;;;;;8.70;2.40;;;2.60;75.90;;;;;;5024123;28;20503;-71
2021/04/06 06:04:58;;;;;;;12.02;3.67;;;2.60;76.20;;;;;;5027046;28;20030;-70
2021/04/06 06:07:24;;;;;;;8.48;2.78;;;2.60;76.30;;;;;;5024485;28;20071;-74
2021/04/06 06:09:50;;;;;;;12.63;2.95;;;2.60;76.40;;;;;;5019943;28;20370;-71
2021/04/06 06:12:20;;;;;;;9.98;2.70;;;2.60;76.40;;;;;;5023397;28;20022;-71
2021/04/06 06:14:51;;;;;;;12.15;2.90;;;2.70;76.30;;;;;;5019061;28;20038;-71
2021/04/06 06:17:21;;;;;;;12.75;3.38;;;2.80;76.00;;;;;;5021812;28;20033;-71
2021/04/06 06:19:52;;;;;;;11.50;3.90;;;2.90;75.70;;;;;;5029033;28;20557;-71
2021/04/06 06:22:21;;;;;;;10.50;4.57;;;3.10;75.40;;;;;;5026684;28;20119;-71
2021/04/06 06:24:49;;;;;;;15.45;5.10;;;3.30;75.20;;;;;;5029177;28;20029;-71
2021/04/06 06:27:37;;;;;;;10.35;3.88;;;3.50;74.30;;;;;;5026936;28;20111;-71
2021/04/06 06:30:29;;;;;;;15.00;3.58;;;3.60;73.10;;;;;;5034413;28;20167;-74
2021/04/06 06:33:21;;;;;;;14.05;4.75;;;3.70;72.10;;;;;;5020636;28;20080;-71
2021/04/06 06:35:52;;;;;;;8.18;2.75;;;3.70;72.20;;;;;;5023343;28;20041;-71
2021/04/06 06:38:38;;;;;;;15.10;4.25;;;3.80;72.00;;;;;;5017617;28;20056;-71
2021/04/06 06:41:13;;;;;;;10.90;3.55;;;3.80;71.50;;;;;;5024088;28;20032;-71
2021/04/06 06:43:44;;;;;;;11.18;3.10;;;3.90;71.10;;;;;;5023824;28;20495;-71
2021/04/06 06:46:17;;;;;;;12.27;3.70;;;3.90;69.80;;;;;;5018415;28;20030;-73
2021/04/06 06:48:52;;;;;;;11.60;3.70;;;4.10;68.30;;;;;;5028320;28;20496;-70
2021/04/06 06:51:18;;;;;;;10.93;4.03;;;4.20;67.20;;;;;;5011175;28;20034;-72
2021/04/06 06:53:44;;;;;;;12.05;4.22;;;4.30;66.10;;;;;;5016981;28;20118;-71
2021/04/06 06:56:11;;;;;;;11.32;3.88;;;4.30;65.00;;;;;;5027241;28;20084;-76
2021/04/06 06:58:41;;;;;;;11.60;4.03;;;4.50;64.90;;;;;;5029601;28;20036;-71
2021/04/06 07:01:21;;;;;;;13.63;3.58;;;4.60;65.30;;;;;;5031667;28;20531;-71
2021/04/06 07:04:00;;;;;;;9.27;2.85;;;4.60;64.70;;;;;;5030077;28;20152;-67
2021/04/06 07:06:26;;;;;;;13.27;3.22;;;4.70;63.40;;;;;;5021035;28;20052;-67
2021/04/06 07:08:51;;;;;;;13.75;3.85;;;4.80;63.40;;;;;;5011138;28;20034;-66
2021/04/06 07:11:19;;;;;;;14.07;4.50;;;4.90;62.40;;;;;;5013840;28;20049;-67
2021/04/06 07:13:45;;;;;;;14.15;5.90;;;5.00;60.70;;;;;;5016065;28;20064;-66
2021/04/06 07:16:15;;;;;;;11.27;2.85;;;5.00;60.60;;;;;;4998364;28;20041;-70
2021/04/06 07:18:42;;;;;;;10.90;3.15;;;5.00;59.30;;;;;;5002696;28;20030;-66
2021/04/06 07:21:10;;;;;;;7.75;2.47;;;4.90;59.70;;;;;;5006191;28;20049;-66
2021/04/06 07:23:49;;;;;;;8.32;1.80;;;4.90;58.10;;;;;;5021181;28;20064;-66
2021/04/06 07:26:17;;;;;;;10.95;2.10;;;4.60;56.60;;;;;;5031703;28;20030;-66
2021/04/06 07:28:44;;;;;;;7.38;2.10;;;4.50;57.60;;;;;;5020590;28;20030;-67
2021/04/06 07:31:11;;;;;;;11.52;2.65;;;4.50;57.70;;;;;;5025943;28;20033;-67
2021/04/06 07:33:39;;;;;;;8.32;2.20;;;4.40;57.20;;;;;;5021984;28;20041;-67
2021/04/06 07:36:08;;;;;;;8.20;2.15;;;4.40;57.60;;;;;;5017235;28;20034;-67
2021/04/06 07:38:37;;;;;;;10.68;2.55;;;4.40;57.10;;;;;;5030795;28;20033;-66
2021/04/06 07:41:04;;;;;;;13.02;2.50;;;4.40;56.80;;;;;;5019404;28;20038;-66
2021/04/06 07:43:30;;;;;;;12.60;2.58;;;4.40;57.00;;;;;;5016838;28;20131;-70
2021/04/06 07:45:56;;;;;;;9.23;1.80;;;4.30;57.20;;;;;;5035564;28;20432;-66
2021/04/06 07:48:55;;;;;;;10.50;2.30;;;4.20;57.40;;;;;;5019266;28;20073;-67
2021/04/06 07:51:24;;;;;;;8.60;2.45;;;4.20;58.30;;;;;;4979815;28;20086;-66
2021/04/06 07:54:10;;;;;;;11.98;2.80;;;4.20;58.30;;;;;;5011133;28;20421;-67
2021/04/06 07:56:50;;;;;;;9.10;2.75;;;4.30;58.90;;;;;;5012668;28;20044;-67
2021/04/06 07:59:19;;;;;;;10.98;2.55;;;4.70;58.10;;;;;;5021144;28;20041;-69
2021/04/06 08:01:51;;;;;;;11.07;2.17;;;5.10;57.50;;;;;;5020738;28;20052;-68
2021/04/06 08:04:18;;;;;;;9.05;2.28;;;5.40;56.70;;;;;;5018879;28;20485;-68
2021/04/06 08:06:48;;;;;;;10.68;2.50;;;5.50;55.20;;;;;;5012917;28;20053;-68
2021/04/06 08:09:35;;;;;;;8.52;2.42;;;5.90;54.30;;;;;;5014174;28;20111;-69
2021/04/06 08:12:19;;;;;;;8.25;2.63;;;6.20;53.70;;;;;;5005396;28;20033;-70
2021/04/06 08:15:02;;;;;;;12.23;3.10;;;5.90;54.90;;;;;;5015303;28;20589;-70
2021/04/06 08:17:28;;;;;;;11.48;3.50;;;5.50;55.90;;;;;;5015021;28;20512;-68
2021/04/06 08:20:00;;;;;;;10.93;2.53;;;5.20;55.10;;;;;;5014932;28;20060;-69
2021/04/06 08:22:32;;;;;;;10.27;2.47;;;5.10;56.00;;;;;;5006131;28;20048;-69
2021/04/06 08:25:19;;;;;;;8.27;2.50;;;5.00;56.00;;;;;;5006469;28;20163;-71
2021/04/06 08:27:50;;;;;;;7.95;2.28;;;5.10;55.20;;;;;;5024163;28;20034;-70
2021/04/06 08:30:18;;;;;;;11.35;2.55;;;5.50;54.70;;;;;;5005331;28;20108;-71
2021/04/06 08:33:07;;;;;;;8.27;2.90;;;5.90;53.20;;;;;;5018617;28;20067;-69
2021/04/06 08:35:49;;;;;;;11.25;3.92;;;6.10;50.90;;;;;;5004417;28;20057;-67
2021/04/06 08:38:26;;;;;;;11.68;2.92;;;6.40;49.90;;;;;;5014962;28;20100;-71
2021/04/06 08:40:53;;;;;;;7.72;2.50;;;6.70;49.90;;;;;;5007131;28;20075;-69
2021/04/06 08:43:38;;;;;;;10.63;2.65;;;6.60;48.30;;;;;;5016065;28;20076;-69
2021/04/06 08:46:09;;;;;;;5.65;1.50;;;5.90;48.80;;;;;;5016802;28;20037;-68
2021/04/06 08:48:48;;;;;;;10.07;2.00;;;5.70;48.70;;;;;;5013598;28;20136;-69
2021/04/06 08:51:31;;;;;;;7.25;2.05;;;5.90;48.70;;;;;;5012730;28;20124;-69
2021/04/06 08:53:59;;;;;;;8.45;2.33;;;6.10;46.40;;;;;;5009286;28;20500;-68
2021/04/06 08:56:27;;;;;;;7.00;1.88;;;6.40;44.90;;;;;;5032398;28;20034;-72
2021/04/06 08:59:09;;;;;;;9.35;2.53;;;6.00;48.50;;;;;;5020174;28;20025;-69
2021/04/06 09:01:35;;;;;;;6.10;1.90;;;5.50;51.30;;;;;;5012869;28;20057;-69
2021/04/06 09:04:10;;;;;;;8.75;2.65;;;5.40;51.80;;;;;;5016196;28;20037;-69
2021/04/06 09:06:35;;;;;;;7.80;2.35;;;5.30;52.00;;;;;;5031199;28;20415;-68
2021/04/06 09:09:01;;;;;;;6.40;1.70;;;5.30;53.40;;;;;;5017129;28;20025;-71
2021/04/06 09:11:27;;;;;;;5.95;1.75;;;5.50;52.40;;;;;;5010994;28;20474;-67
2021/04/06 09:13:53;;;;;;;6.88;2.17;;;5.90;51.10;;;;;;5032002;28;20041;-68
2021/04/06 09:16:27;;;;;;;11.23;2.10;;;6.50;49.80;;;;;;5035299;28;20071;-70
2021/04/06 09:18:54;;;;;;;9.77;2.00;;;6.70;46.80;;;;;;5013908;28;20036;-67
2021/04/06 09:21:23;;;;;;;10.27;2.00;;;6.80;47.20;;;;;;5013692;28;20022;-68
2021/04/06 09:23:53;;;;;;;5.75;1.70;;;7.20;47.90;;;;;;5014099;28;20366;-68
2021/04/06 09:26:19;;;;;;;7.68;1.90;;;6.90;44.20;;;;;;5020660;28;20553;-68
2021/04/06 09:28:46;;;;;;;10.15;1.85;;;6.60;45.60;;;;;;5023044;28;20172;-68
2021/04/06 09:31:13;;;;;;;7.25;1.73;;;6.30;46.60;;;;;;5018149;28;20361;-69
2021/04/06 09:33:38;;;;;;;9.27;2.25;;;6.10;46.70;;;;;;5017950;28;20038;-68
2021/04/06 09:36:11;;;;;;;4.68;1.50;;;5.90;46.20;;;;;;5016421;28;20499;-69
2021/04/06 09:38:38;;;;;;;8.43;2.00;;;6.20;46.40;;;;;;5013080;28;20152;-70
2021/04/06 09:41:04;;;;;;;5.25;1.50;;;6.80;47.40;;;;;;5017097;28;20032;-68
2021/04/06 09:43:29;;;;;;;8.75;1.67;;;7.00;44.50;;;;;;5015959;28;20034;-70
2021/04/06 09:45:55;;;;;;;7.18;2.15;;;6.90;45.30;;;;;;5017363;28;20060;-68
2021/04/06 09:48:21;;;;;;;7.72;1.83;;;6.50;46.90;;;;;;5019220;28;20184;-69
2021/04/06 09:50:56;;;;;;;8.07;2.42;;;6.20;48.60;;;;;;5011164;28;20040;-68
2021/04/06 09:53:22;;;;;;;6.20;1.98;;;6.30;47.80;;;;;;5012854;28;20045;-69
2021/04/06 09:55:48;;;;;;;10.10;3.47;;;6.50;45.50;;;;;;5015677;28;20102;-67
2021/04/06 09:58:14;;;;;;;7.90;2.13;;;6.80;47.80;;;;;;5015688;28;20457;-68
2021/04/06 10:00:43;;;;;;;8.32;2.63;;;7.10;48.20;;;;;;5014421;28;20033;-68
2021/04/06 10:03:10;;;;;;;6.10;1.60;;;7.50;45.70;;;;;;5016576;28;20109;-69
2021/04/06 10:05:38;;;;;;;5.03;1.80;;;7.50;44.90;;;;;;5012308;28;20046;-69
2021/04/06 10:08:04;;;;;;;6.50;2.10;;;7.00;44.70;;;;;;5010146;28;20049;-70
2021/04/06 10:10:33;;;;;;;5.90;1.90;;;6.60;43.50;;;;;;5021722;28;20040;-68
2021/04/06 10:13:00;;;;;;;3.53;1.63;;;6.20;43.10;;;;;;5012957;28;20117;-68
2021/04/06 10:15:29;;;;;;;4.88;1.50;;;6.60;44.00;;;;;;5010629;28;20107;-68
2021/04/06 10:17:55;;;;;;;4.90;1.92;;;6.90;41.90;;;;;;5012820;28;20030;-70
2021/04/06 10:20:25;;;;;;;6.00;2.00;;;7.30;42.90;;;;;;5014890;28;20130;-68
2021/04/06 10:22:56;;;;;;;7.85;2.22;;;7.30;43.20;;;;;;5015090;28;20068;-69
2021/04/06 10:25:27;;;;;;;9.40;1.92;;;7.70;44.00;;;;;;5022550;28;20075;-68
2021/04/06 10:27:55;;;;;;;6.53;1.50;;;7.10;46.50;;;;;;5019860;28;20033;-68
2021/04/06 10:30:52;;;;;;;6.85;1.70;;;6.70;43.00;;;;;;5020980;28;20042;-69
2021/04/06 10:33:20;;;;;;;5.35;1.40;;;6.90;42.80;;;;;;5013905;28;20033;-69
2021/04/06 10:35:50;;;;;;;8.35;1.83;;;7.20;43.40;;;;;;5023123;28;20065;-68
2021/04/06 10:38:25;;;;;;;5.30;1.65;;;7.40;43.40;;;;;;5020127;28;20037;-68
2021/04/06 10:41:06;;;;;;;6.45;1.40;;;7.30;44.40;;;;;;5027181;28;20029;-68
2021/04/06 10:43:33;;;;;;;6.25;1.70;;;7.10;41.70;;;;;;5024760;28;20037;-70
2021/04/06 10:46:08;;;;;;;7.10;1.55;;;6.80;43.00;;;;;;5019680;28;20034;-69
2021/04/06 10:48:35;;;;;;;;;;;6.60;44.80;;;;;;5024482;28;20033;-69
2021/04/06 10:51:13;;;;;;;4.93;1.40;;;6.60;46.30;;;;;;5025556;28;19924;-70
2021/04/06 10:53:39;;;;;;;5.55;1.40;;;6.80;45.20;;;;;;5017646;28;20034;-69
2021/04/06 10:56:14;;;;;;;3.97;1.35;;;7.20;42.80;;;;;;5015459;28;20103;-72
2021/04/06 10:58:44;;;;;;;6.25;1.60;;;6.80;41.80;;;;;;5020922;28;20064;-69
2021/04/06 11:01:13;;;;;;;5.00;1.40;;;6.60;43.30;;;;;;5027264;28;20384;-68
2021/04/06 11:03:43;;;;;;;6.25;1.52;;;6.60;43.80;;;;;;5024626;28;20057;-71
2021/04/06 11:06:15;;;;;;;8.20;1.90;;;6.40;44.90;;;;;;5023440;28;20133;-69
2021/04/06 11:08:44;;;;;;;6.88;1.90;;;6.90;45.50;;;;;;5023744;28;20029;-70
2021/04/06 11:11:26;;;;;;;4.63;1.50;;;7.00;46.50;;;;;;5021337;28;20203;-68
2021/04/06 11:13:54;;;;;;;6.20;1.77;;;6.40;46.30;;;;;;5026710;28;20045;-70
2021/04/06 11:16:20;;;;;;;7.70;2.13;;;6.00;47.10;;;;;;5026127;28;20044;-69
2021/04/06 11:19:21;;;;;;;8.43;2.60;;;5.90;48.20;;;;;;5028846;28;20038;-69
2021/04/06 11:21:53;;;;;;;7.05;1.92;;;5.90;49.30;;;;;;4993900;28;20052;-68
2021/04/06 11:24:21;;;;;;;5.50;1.52;;;5.80;47.50;;;;;;5018873;28;20038;-72
2021/04/06 11:26:47;;;;;;;7.43;1.90;;;5.60;48.50;;;;;;5017737;28;20058;-71
2021/04/06 11:29:15;;;;;;;6.35;1.67;;;5.90;49.10;;;;;;5015947;28;20499;-74
2021/04/06 11:31:44;;;;;;;3.50;1.40;;;6.50;48.30;;;;;;5020205;28;20030;-70
2021/04/06 11:34:12;;;;;;;5.20;1.92;;;6.30;38.70;;;;;;5023927;28;20392;-71
2021/04/06 11:36:38;;;;;;;6.20;2.35;;;6.60;45.60;;;;;;5015451;28;20030;-69
2021/04/06 11:39:06;;;;;;;7.85;2.30;;;6.80;44.60;;;;;;5013712;28;20029;-69
2021/04/06 11:41:33;;;;;;;6.80;1.60;;;6.90;44.40;;;;;;5018796;28;20038;-71
2021/04/06 11:43:59;;;;;;;7.80;1.80;;;7.20;42.10;;;;;;5023312;28;20589;-71
2021/04/06 11:46:24;;;;;;;6.30;2.00;;;7.00;43.80;;;;;;5018039;28;20365;-70
2021/04/06 11:48:50;;;;;;;4.97;1.70;;;7.10;43.40;;;;;;5022212;28;20056;-70
2021/04/06 11:51:16;;;;;;;6.35;2.00;;;7.10;45.10;;;;;;5023391;28;20033;-68
2021/04/06 11:53:42;;;;;;;6.78;2.00;;;7.10;44.30;;;;;;5023322;28;20472;-69
2021/04/06 11:56:08;;;;;;;4.93;1.30;;;7.40;44.10;;;;;;5023742;28;20374;-68
2021/04/06 11:58:34;;;;;;;4.95;1.30;;;7.40;38.60;;;;;;5022243;28;20471;-69
2021/04/06 12:01:00;;;;;;;5.93;1.65;;;7.50;39.90;;;;;;5026908;28;20041;-68
2021/04/06 12:03:26;;;;;;;5.20;1.40;;;7.50;40.30;;;;;;5029233;28;20018;-68
2021/04/06 12:05:52;;;;;;;6.70;1.70;;;7.10;38.80;;;;;;5019335;28;20422;-69
2021/04/06 12:08:18;;;;;;;4.93;1.75;;;7.20;39.40;;;;;;5023913;28;20036;-69
2021/04/06 12:10:45;;;;;;;5.47;1.60;;;7.60;40.70;;;;;;5020930;28;20030;-69
2021/04/06 12:13:11;;;;;;;9.07;1.73;;;7.80;39.90;;;;;;5027316;28;20087;-68
2021/04/06 12:15:38;;;;;;;5.82;1.63;;;7.60;40.40;;;;;;5020164;28;20417;-68
2021/04/06 12:18:04;;;;;;;7.05;2.25;;;7.50;40.60;;;;;;5024210;28;20547;-68
2021/04/06 12:20:30;;;;;;;10.40;3.20;;;7.30;40.40;;;;;;5020330;28;20164;-74
2021/04/06 12:22:56;;;;;;;5.35;1.70;;;8.00;41.10;;;;;;5019047;28;20114;-70
2021/04/06 12:25:22;;;;;;;4.70;2.10;;;7.80;40.20;;;;;;5023393;28;20113;-71
2021/04/06 12:27:47;;;;;;;11.05;3.92;;;7.40;39.20;;;;;;5027616;28;20445;-69
2021/04/06 12:30:14;;;;;;;4.53;1.80;;;7.40;42.00;;;;;;5025753;28;20083;-68
2021/04/06 12:32:40;;;;;;;7.85;1.88;;;7.20;37.30;;;;;;5018908;28;20087;-68
2021/04/06 12:35:07;;;;;;;5.95;2.15;;;7.10;36.40;;;;;;5027355;28;20050;-69
2021/04/06 12:37:33;;;;;;;8.40;2.22;;;7.40;40.30;;;;;;5023813;28;20029;-69
2021/04/06 12:39:59;;;;;;;6.50;2.25;;;7.10;42.10;;;;;;5024390;28;20044;-69
2021/04/06 12:42:25;;;;;;;9.77;3.42;;;7.40;44.20;;;;;;5022331;28;20037;-68
2021/04/06 12:44:51;;;;;;;6.60;2.22;;;7.70;42.20;;;;;;5039281;28;20397;-70
2021/04/06 12:47:18;;;;;;;6.55;2.38;;;7.80;42.70;;;;;;5018446;28;20045;-69
2021/04/06 12:49:43;;;;;;;8.52;2.95;;;7.20;42.10;;;;;;5026912;28;20411;-69
2021/04/06 12:52:09;;;;;;;8.18;2.70;;;7.10;43.80;;;;;;5018401;28;20077;-70
2021/04/06 12:54:35;;;;;;;10.48;3.15;;;7.20;43.00;;;;;;5008372;28;20160;-68
2021/04/06 12:57:01;;;;;;;4.43;2.00;;;7.60;38.60;;;;;;5022180;28;20065;-73
2021/04/06 12:59:26;;;;;;;6.38;2.60;;;7.90;37.50;;;;;;5001428;28;21621;-73
2021/04/06 13:01:52;;;;;;;6.57;2.50;;;8.00;38.80;;;;;;4989857;28;20069;-74
2021/04/06 13:04:17;;;;;;;5.18;2.10;;;7.90;40.60;;;;;;5000220;28;20065;-72
2021/04/06 13:06:43;;;;;;;5.20;2.20;;;8.00;40.10;;;;;;5002649;28;20037;-72